Time;durP1;ratioP1;P1;durP2;ratioP2;P2;SDS_P1;SDS_P2;PMS_P1;PMS_P2;Temp;Humidity;BMP_temperature;BMP_pressure;BME280_temperature;BME280_humidity;BME280_pressure;Samples;Min_cycle;Max_cycle;Signal;HPM_P1;HPM_P2
2021/09/16 00:00:47;;;;;;;4.55;2.10;;;23.90;55.50;;;;;;4168623;28;20046;-40
2021/09/16 00:02:49;;;;;;;4.90;2.20;;;24.00;55.50;;;;;;4168718;28;20110;-40
2021/09/16 00:04:51;;;;;;;2.50;2.30;;;23.90;55.50;;;;;;4168678;28;20054;-40
2021/09/16 00:06:53;;;;;;;3.55;2.67;;;24.00;55.50;;;;;;4168577;28;20080;-41
2021/09/16 00:08:56;;;;;;;2.50;2.30;;;23.90;55.50;;;;;;4168614;28;20046;-40
2021/09/16 00:10:58;;;;;;;3.50;2.08;;;24.00;55.50;;;;;;4168552;28;20050;-41
2021/09/16 00:13:00;;;;;;;2.47;2.15;;;23.90;55.50;;;;;;4168451;28;20045;-41
2021/09/16 00:15:04;;;;;;;2.75;2.30;;;24.00;55.60;;;;;;4168437;28;20053;-41
2021/09/16 00:17:06;;;;;;;2.17;2.00;;;23.90;55.60;;;;;;4168439;28;20053;-41
2021/09/16 00:19:08;;;;;;;2.63;2.42;;;23.90;55.60;;;;;;4168418;28;20057;-41
2021/09/16 00:21:11;;;;;;;2.40;2.20;;;23.90;55.50;;;;;;4168426;28;20046;-42
2021/09/16 00:23:13;;;;;;;3.10;2.08;;;23.90;55.60;;;;;;4167188;28;20045;-45
2021/09/16 00:25:34;;;;;;;4.70;2.35;;;23.90;55.50;;;;;;4167407;28;20044;-44
2021/09/16 00:27:55;;;;;;;5.65;2.30;;;23.90;55.50;;;;;;4167291;28;20072;-44
2021/09/16 00:30:16;;;;;;;2.80;2.25;;;23.90;55.50;;;;;;4166516;28;20466;-44
2021/09/16 00:32:37;;;;;;;3.08;2.78;;;23.90;55.40;;;;;;4167280;28;20068;-43
2021/09/16 00:34:58;;;;;;;7.35;2.85;;;23.90;55.50;;;;;;4166932;28;20061;-44
2021/09/16 00:37:19;;;;;;;2.60;2.15;;;23.90;55.50;;;;;;4166403;28;20056;-45
2021/09/16 00:39:40;;;;;;;2.90;2.40;;;23.90;55.50;;;;;;4166303;28;20052;-47
2021/09/16 00:42:01;;;;;;;2.67;2.25;;;23.90;55.50;;;;;;4167160;28;20045;-50
2021/09/16 00:44:22;;;;;;;3.75;2.70;;;23.90;55.50;;;;;;4166933;28;20080;-49
2021/09/16 00:46:43;;;;;;;4.03;2.45;;;23.90;55.60;;;;;;4165597;28;20108;-48
2021/09/16 00:49:06;;;;;;;3.35;2.55;;;23.90;55.50;;;;;;4167035;28;20077;-45
2021/09/16 00:51:27;;;;;;;2.67;2.47;;;23.90;55.60;;;;;;4167077;28;20077;-44
2021/09/16 00:53:49;;;;;;;5.47;2.78;;;23.90;55.60;;;;;;4166867;28;20102;-44
2021/09/16 00:56:11;;;;;;;2.90;2.60;;;23.90;55.70;;;;;;4166735;28;20102;-44
2021/09/16 00:58:39;;;;;;;3.15;2.55;;;23.90;55.60;;;;;;4166849;28;20103;-47
2021/09/16 01:01:00;;;;;;;2.60;2.40;;;23.90;55.70;;;;;;4166683;28;20057;-44
2021/09/16 01:03:24;;;;;;;3.35;2.13;;;23.90;55.90;;;;;;4166848;28;20052;-45
2021/09/16 01:05:45;;;;;;;4.13;2.53;;;23.90;55.80;;;;;;4166544;28;20052;-43
2021/09/16 01:08:06;;;;;;;3.65;2.30;;;23.90;55.80;;;;;;4166641;28;20045;-45
2021/09/16 01:10:28;;;;;;;4.32;2.83;;;23.90;55.90;;;;;;4166566;28;20044;-46
2021/09/16 01:12:49;;;;;;;3.58;2.83;;;23.90;56.00;;;;;;4166772;28;20052;-45
2021/09/16 01:15:10;;;;;;;2.97;2.20;;;23.90;55.90;;;;;;4166521;28;20049;-45
2021/09/16 01:17:31;;;;;;;3.15;2.60;;;23.90;56.10;;;;;;4166576;28;20073;-44
2021/09/16 01:19:52;;;;;;;4.88;2.00;;;23.90;56.00;;;;;;4166660;28;20114;-45
2021/09/16 01:22:21;;;;;;;4.97;2.55;;;23.90;56.20;;;;;;4166315;28;20053;-44
2021/09/16 01:24:41;;;;;;;2.72;2.30;;;23.90;56.20;;;;;;4177882;28;20055;-43
2021/09/16 01:27:02;;;;;;;3.90;2.40;;;23.90;56.20;;;;;;4182733;28;20076;-43
2021/09/16 01:29:24;;;;;;;3.83;3.17;;;23.90;56.30;;;;;;4182642;28;20060;-43
2021/09/16 01:31:48;;;;;;;5.90;2.90;;;23.90;56.30;;;;;;4182815;28;20076;-44
2021/09/16 01:34:11;;;;;;;3.05;2.53;;;23.90;56.30;;;;;;4182731;28;20049;-45
2021/09/16 01:36:32;;;;;;;3.35;2.97;;;23.90;56.40;;;;;;4182670;28;20055;-44
2021/09/16 01:38:53;;;;;;;3.10;2.30;;;23.90;56.40;;;;;;4182588;28;20076;-44
2021/09/16 01:41:14;;;;;;;2.97;2.42;;;23.90;56.50;;;;;;4182641;28;20053;-46
2021/09/16 01:43:34;;;;;;;3.47;2.20;;;23.90;56.30;;;;;;4182583;28;20133;-44
2021/09/16 01:45:55;;;;;;;4.03;2.72;;;23.90;56.30;;;;;;4182496;28;20048;-43
2021/09/16 01:48:16;;;;;;;3.55;2.65;;;23.90;56.40;;;;;;4182494;28;20094;-45
2021/09/16 01:50:36;;;;;;;5.65;2.97;;;23.90;56.30;;;;;;4182547;28;20074;-44
2021/09/16 01:52:57;;;;;;;3.83;2.97;;;23.90;56.50;;;;;;4182382;28;20048;-44
2021/09/16 01:55:19;;;;;;;5.35;2.95;;;23.90;56.40;;;;;;4182065;28;20052;-43
2021/09/16 01:57:40;;;;;;;3.25;2.60;;;23.90;56.40;;;;;;4167054;28;20069;-44
2021/09/16 02:00:00;;;;;;;2.95;2.75;;;23.90;56.50;;;;;;4182300;28;20053;-43
2021/09/16 02:02:21;;;;;;;6.10;2.53;;;23.90;56.60;;;;;;4182291;28;20068;-44
2021/09/16 02:04:42;;;;;;;5.85;2.65;;;23.90;56.60;;;;;;4182231;28;20064;-44
2021/09/16 02:07:03;;;;;;;4.13;3.15;;;23.90;56.60;;;;;;4182353;28;20064;-45
2021/09/16 02:09:24;;;;;;;5.80;2.92;;;23.90;56.60;;;;;;4167619;28;20056;-45
2021/09/16 02:11:45;;;;;;;4.97;2.50;;;23.90;56.60;;;;;;4182015;28;20076;-47
2021/09/16 02:14:05;;;;;;;3.40;2.45;;;23.90;56.40;;;;;;4182122;28;20052;-49
2021/09/16 02:16:26;;;;;;;2.88;2.28;;;23.90;56.40;;;;;;4182065;28;20105;-46
2021/09/16 02:18:46;;;;;;;3.47;3.13;;;23.90;56.40;;;;;;4181945;28;20068;-44
2021/09/16 02:21:07;;;;;;;2.95;2.63;;;23.90;56.40;;;;;;4182132;28;20048;-45
2021/09/16 02:23:28;;;;;;;5.65;2.30;;;23.90;56.40;;;;;;4181943;28;20053;-44
2021/09/16 02:25:48;;;;;;;3.97;2.72;;;23.90;56.60;;;;;;4181940;28;20184;-43
2021/09/16 02:28:09;;;;;;;3.70;2.60;;;23.90;56.30;;;;;;4167308;28;20113;-44
2021/09/16 02:30:29;;;;;;;3.33;2.38;;;23.90;56.50;;;;;;4182095;28;20112;-44
2021/09/16 02:32:50;;;;;;;5.05;2.42;;;23.90;56.50;;;;;;4181953;28;20508;-44
2021/09/16 02:35:12;;;;;;;4.72;2.80;;;23.90;56.10;;;;;;4181799;28;20055;-44
2021/09/16 02:37:32;;;;;;;2.47;2.20;;;23.90;56.20;;;;;;4182049;28;20051;-44
2021/09/16 02:39:54;;;;;;;3.83;3.00;;;23.90;56.20;;;;;;4181895;28;20076;-45
2021/09/16 02:42:14;;;;;;;4.15;2.60;;;23.90;56.20;;;;;;4181813;28;20068;-45
2021/09/16 02:44:35;;;;;;;3.97;2.70;;;24.00;56.10;;;;;;4181880;28;20052;-44
2021/09/16 02:46:56;;;;;;;5.43;2.92;;;23.90;56.10;;;;;;4181763;28;20060;-44
2021/09/16 02:49:17;;;;;;;2.47;2.28;;;24.00;56.00;;;;;;4181688;28;20048;-44
2021/09/16 02:51:38;;;;;;;3.22;2.50;;;24.00;55.90;;;;;;4181572;28;20052;-44
2021/09/16 02:53:59;;;;;;;3.15;2.83;;;24.00;56.00;;;;;;4181667;28;20085;-46
2021/09/16 02:56:20;;;;;;;3.90;3.28;;;24.00;56.00;;;;;;4181745;28;20076;-44
2021/09/16 02:58:40;;;;;;;2.92;2.63;;;24.00;56.00;;;;;;4181680;28;20102;-45
2021/09/16 03:01:01;;;;;;;2.75;2.30;;;24.00;55.90;;;;;;4167240;28;20057;-48
2021/09/16 03:03:22;;;;;;;3.63;3.10;;;24.00;56.00;;;;;;4181711;28;20060;-44
2021/09/16 03:05:43;;;;;;;3.58;2.35;;;24.00;55.80;;;;;;4181630;28;20048;-45
2021/09/16 03:08:04;;;;;;;2.55;2.30;;;24.00;56.10;;;;;;4181724;28;20104;-44
2021/09/16 03:10:25;;;;;;;3.30;2.72;;;24.00;56.00;;;;;;4184893;28;20055;-44
2021/09/16 03:12:45;;;;;;;3.88;2.60;;;23.90;56.10;;;;;;4170207;28;20073;-44
2021/09/16 03:15:08;;;;;;;4.53;3.45;;;23.90;55.90;;;;;;4170172;28;20052;-44
2021/09/16 03:17:29;;;;;;;2.75;2.53;;;23.90;56.00;;;;;;4184846;28;20097;-47
2021/09/16 03:19:50;;;;;;;2.80;2.58;;;23.90;56.10;;;;;;4184915;28;20048;-45
2021/09/16 03:22:12;;;;;;;4.07;3.30;;;23.90;56.20;;;;;;4184686;28;20076;-44
2021/09/16 03:24:33;;;;;;;4.22;2.85;;;23.90;56.20;;;;;;4184640;28;20084;-44
2021/09/16 03:26:54;;;;;;;4.57;3.03;;;23.90;56.30;;;;;;4184776;28;20052;-44
2021/09/16 03:29:15;;;;;;;3.20;2.72;;;23.90;56.30;;;;;;4184671;28;20049;-44
2021/09/16 03:31:36;;;;;;;5.32;3.33;;;23.90;56.40;;;;;;4184560;28;20056;-44
2021/09/16 03:33:56;;;;;;;3.35;3.05;;;23.90;56.30;;;;;;4184369;28;20052;-46
2021/09/16 03:36:17;;;;;;;3.75;2.47;;;23.90;56.40;;;;;;4184582;28;20068;-44
2021/09/16 03:38:37;;;;;;;6.03;3.42;;;23.80;56.40;;;;;;4184629;28;20045;-46
2021/09/16 03:40:58;;;;;;;3.75;2.78;;;23.80;56.40;;;;;;4184472;28;20076;-44
2021/09/16 03:43:19;;;;;;;5.45;2.97;;;23.80;56.60;;;;;;4184615;28;20056;-44
2021/09/16 03:45:39;;;;;;;4.55;3.03;;;23.80;56.60;;;;;;4184279;28;20080;-45
2021/09/16 03:48:00;;;;;;;3.47;2.83;;;23.80;56.50;;;;;;4184373;28;20410;-44
2021/09/16 03:50:21;;;;;;;3.08;2.75;;;23.80;56.40;;;;;;4184454;28;20055;-49
2021/09/16 03:52:23;;;;;;;3.40;3.10;;;23.80;56.50;;;;;;4184301;28;20109;-48
2021/09/16 03:54:25;;;;;;;2.92;2.60;;;23.90;56.40;;;;;;4184086;28;20505;-50
2021/09/16 03:56:47;;;;;;;4.60;3.50;;;23.80;56.50;;;;;;4183845;28;20044;-45
2021/09/16 03:59:08;;;;;;;5.32;3.10;;;23.90;56.40;;;;;;4184181;28;20076;-45
2021/09/16 04:01:29;;;;;;;4.75;3.20;;;23.90;56.40;;;;;;4169755;28;20088;-45
2021/09/16 04:03:50;;;;;;;4.60;3.25;;;23.90;56.50;;;;;;4183931;28;20061;-46
2021/09/16 04:06:11;;;;;;;4.80;3.20;;;23.80;56.40;;;;;;4184008;28;20060;-44
2021/09/16 04:08:32;;;;;;;7.47;3.10;;;23.80;56.70;;;;;;4169644;28;20053;-48
2021/09/16 04:10:53;;;;;;;7.18;4.03;;;23.80;56.70;;;;;;4183972;28;20060;-47
2021/09/16 04:13:14;;;;;;;3.35;2.95;;;23.80;56.60;;;;;;4183965;28;20105;-45
2021/09/16 04:15:35;;;;;;;10.82;3.28;;;23.90;56.70;;;;;;4183872;28;20105;-46
2021/09/16 04:17:56;;;;;;;5.80;3.13;;;23.80;56.50;;;;;;4169141;28;20101;-45
2021/09/16 04:20:17;;;;;;;3.55;2.80;;;23.80;56.50;;;;;;4182875;28;20072;-45
2021/09/16 04:22:38;;;;;;;4.13;3.25;;;23.80;57.10;;;;;;4183870;28;20072;-44
2021/09/16 04:24:59;;;;;;;5.57;3.70;;;23.80;56.50;;;;;;4183748;28;20080;-45
2021/09/16 04:27:02;;;;;;;13.18;5.78;;;23.80;56.50;;;;;;4183783;28;20059;-50
2021/09/16 04:29:22;;;;;;;10.90;6.90;;;23.80;57.00;;;;;;4183803;28;20048;-51
2021/09/16 04:31:44;;;;;;;13.07;5.78;;;23.80;57.80;;;;;;4183516;28;20145;-48
2021/09/16 04:33:47;;;;;;;13.80;5.77;;;23.80;58.40;;;;;;4183562;28;20049;-50
2021/09/16 04:36:08;;;;;;;24.10;6.43;;;23.80;57.90;;;;;;4169264;28;20310;-47
2021/09/16 04:38:28;;;;;;;33.33;8.88;;;23.70;58.50;;;;;;4184321;28;20053;-45
2021/09/16 04:40:50;;;;;;;31.13;8.68;;;23.70;58.70;;;;;;4184638;28;20072;-45
2021/09/16 04:43:11;;;;;;;25.77;8.32;;;23.70;58.60;;;;;;4184519;28;20048;-46
2021/09/16 04:45:14;;;;;;;31.23;9.00;;;23.70;58.90;;;;;;4184466;28;20045;-45
2021/09/16 04:47:16;;;;;;;25.73;9.20;;;23.60;59.20;;;;;;4184432;28;20056;-45
2021/09/16 04:49:18;;;;;;;30.85;11.07;;;23.60;59.10;;;;;;4166840;28;20049;-55
2021/09/16 04:51:20;;;;;;;27.95;8.98;;;23.60;59.20;;;;;;4183308;28;20049;-58
2021/09/16 04:53:25;;;;;;;25.20;9.30;;;23.50;58.10;;;;;;4183249;28;20073;-55
2021/09/16 04:55:28;;;;;;;17.25;8.65;;;23.50;58.00;;;;;;4183399;28;20049;-56
2021/09/16 04:57:30;;;;;;;20.95;9.55;;;23.50;58.00;;;;;;4183244;28;20122;-55
2021/09/16 04:59:53;;;;;;;26.38;9.82;;;23.50;57.90;;;;;;4182631;28;20045;-55
2021/09/16 05:02:14;;;;;;;25.48;10.15;;;23.50;59.10;;;;;;4181899;28;20044;-52
2021/09/16 05:04:36;;;;;;;31.83;9.77;;;23.50;59.80;;;;;;4182333;28;20122;-52
2021/09/16 05:06:59;;;;;;;21.50;9.80;;;23.50;59.90;;;;;;4181206;28;20042;-54
2021/09/16 05:09:21;;;;;;;26.38;9.25;;;23.50;59.70;;;;;;4179571;28;20040;-54
2021/09/16 05:11:45;;;;;;;21.90;9.18;;;23.50;59.80;;;;;;4179898;28;20094;-55
2021/09/16 05:14:12;;;;;;;26.50;8.43;;;23.50;59.90;;;;;;4180146;28;20048;-53
2021/09/16 05:16:35;;;;;;;20.65;9.13;;;23.60;59.70;;;;;;4178963;28;20047;-56
2021/09/16 05:18:57;;;;;;;19.92;8.40;;;23.50;60.10;;;;;;4179486;28;20101;-55
2021/09/16 05:21:20;;;;;;;17.77;9.05;;;23.50;60.10;;;;;;4180623;28;20042;-55
2021/09/16 05:23:42;;;;;;;23.63;9.35;;;23.50;60.00;;;;;;4180155;28;20105;-56
2021/09/16 05:26:06;;;;;;;14.05;8.85;;;23.50;59.90;;;;;;4179965;28;20042;-56
2021/09/16 05:28:29;;;;;;;19.45;9.50;;;23.50;60.10;;;;;;4166075;28;20057;-53
2021/09/16 05:30:52;;;;;;;15.65;9.05;;;23.50;60.10;;;;;;4180166;28;20049;-54
2021/09/16 05:33:14;;;;;;;15.70;9.43;;;23.50;60.10;;;;;;4180100;28;20051;-56
2021/09/16 05:35:41;;;;;;;20.90;8.52;;;23.50;59.90;;;;;;4182499;28;20069;-55
2021/09/16 05:38:04;;;;;;;20.30;8.23;;;23.50;59.90;;;;;;4179653;28;20049;-53
2021/09/16 05:40:26;;;;;;;21.40;8.73;;;23.50;60.30;;;;;;4180075;28;20057;-55
2021/09/16 05:42:49;;;;;;;19.15;10.05;;;23.50;60.10;;;;;;4180346;28;20101;-54
2021/09/16 05:45:12;;;;;;;18.65;8.95;;;23.50;59.70;;;;;;4180152;28;20045;-56
2021/09/16 05:47:34;;;;;;;17.77;9.20;;;23.40;60.10;;;;;;4180623;28;20045;-55
2021/09/16 05:49:57;;;;;;;15.23;9.27;;;23.40;60.10;;;;;;4179989;28;20053;-54
2021/09/16 05:52:19;;;;;;;13.98;8.50;;;23.50;60.10;;;;;;4179995;28;20052;-51
2021/09/16 05:54:42;;;;;;;14.43;8.02;;;23.40;60.30;;;;;;4180252;28;20051;-55
2021/09/16 05:57:04;;;;;;;12.43;8.43;;;23.40;60.30;;;;;;4179906;28;20044;-53
2021/09/16 05:59:27;;;;;;;19.92;9.07;;;23.40;60.70;;;;;;4181093;28;20052;-53
2021/09/16 06:01:50;;;;;;;17.70;8.75;;;23.40;60.40;;;;;;4165587;28;20045;-54
2021/09/16 06:04:13;;;;;;;18.05;8.48;;;23.40;60.80;;;;;;4166368;28;20037;-53
2021/09/16 06:06:35;;;;;;;11.85;8.77;;;23.40;60.60;;;;;;4165300;28;20038;-53
2021/09/16 06:08:58;;;;;;;21.35;9.60;;;23.40;60.50;;;;;;4181423;28;20113;-55
2021/09/16 06:11:20;;;;;;;14.30;8.38;;;23.40;60.60;;;;;;4181335;28;20072;-55
2021/09/16 06:13:43;;;;;;;14.82;9.13;;;23.40;60.30;;;;;;4179802;28;20045;-54
2021/09/16 06:16:06;;;;;;;19.17;9.50;;;23.40;60.70;;;;;;4165829;28;20038;-53
2021/09/16 06:18:29;;;;;;;16.98;8.73;;;23.40;60.10;;;;;;4165674;28;20045;-51
2021/09/16 06:20:51;;;;;;;13.95;9.27;;;23.40;60.50;;;;;;4179476;28;20042;-52
2021/09/16 06:23:13;;;;;;;18.05;9.23;;;23.40;60.10;;;;;;4178935;28;20108;-53
2021/09/16 06:25:36;;;;;;;14.77;8.75;;;23.40;60.60;;;;;;4146387;28;20050;-52
2021/09/16 06:27:58;;;;;;;12.27;8.93;;;23.40;60.30;;;;;;4135126;28;20050;-53
2021/09/16 06:30:21;;;;;;;17.23;9.18;;;23.40;60.60;;;;;;4147493;28;20057;-54
2021/09/16 06:32:46;;;;;;;15.88;9.38;;;23.40;60.00;;;;;;4149255;28;20106;-53
2021/09/16 06:35:09;;;;;;;;;;;23.40;60.10;;;;;;4148175;28;20048;-55
2021/09/16 06:37:31;;;;;;;15.45;9.02;;;23.40;60.20;;;;;;4147161;28;20137;-52
2021/09/16 06:39:54;;;;;;;16.90;8.52;;;23.40;60.70;;;;;;4147176;28;20034;-52
2021/09/16 06:42:16;;;;;;;13.63;8.55;;;23.40;60.50;;;;;;4147743;28;20561;-55
2021/09/16 06:44:39;;;;;;;12.25;8.50;;;23.40;60.20;;;;;;4147552;28;20043;-53
2021/09/16 06:47:01;;;;;;;14.43;8.52;;;23.40;60.20;;;;;;4146314;28;20113;-55
2021/09/16 06:49:23;;;;;;;14.55;8.55;;;23.40;60.40;;;;;;4148791;28;20066;-50
2021/09/16 06:51:46;;;;;;;12.95;8.70;;;23.40;60.10;;;;;;4147824;28;20441;-55
2021/09/16 06:54:08;;;;;;;15.35;8.25;;;23.40;60.10;;;;;;4148296;28;20052;-55
2021/09/16 06:56:30;;;;;;;11.77;8.60;;;23.40;60.30;;;;;;4147873;28;20053;-55
2021/09/16 06:58:53;;;;;;;13.55;8.15;;;23.40;60.20;;;;;;4148094;28;20050;-53
2021/09/16 07:01:15;;;;;;;11.95;8.43;;;23.40;60.40;;;;;;4145432;28;20041;-55
2021/09/16 07:03:38;;;;;;;15.75;8.52;;;23.40;60.60;;;;;;4148547;28;20074;-50
2021/09/16 07:06:00;;;;;;;18.45;8.00;;;23.40;60.30;;;;;;4146801;28;20046;-56
2021/09/16 07:08:24;;;;;;;13.30;8.20;;;23.40;60.10;;;;;;4147074;28;20052;-54
2021/09/16 07:10:46;;;;;;;13.68;8.57;;;23.40;60.20;;;;;;4148504;28;20049;-52
2021/09/16 07:13:09;;;;;;;13.45;7.70;;;23.40;60.30;;;;;;4147390;28;20496;-52
2021/09/16 07:15:31;;;;;;;11.88;7.90;;;23.40;60.40;;;;;;4146700;28;20043;-54
2021/09/16 07:17:53;;;;;;;20.88;9.77;;;23.40;60.00;;;;;;4148296;28;20065;-55
2021/09/16 07:20:15;;;;;;;12.43;8.70;;;23.40;59.50;;;;;;4147397;28;20049;-53
2021/09/16 07:22:40;;;;;;;18.42;9.25;;;23.40;60.30;;;;;;4147325;28;20050;-56
2021/09/16 07:25:03;;;;;;;14.15;9.00;;;23.40;59.90;;;;;;4162739;28;20057;-51
2021/09/16 07:27:26;;;;;;;11.38;8.52;;;23.40;59.90;;;;;;4162644;28;20057;-55
2021/09/16 07:29:48;;;;;;;14.52;8.90;;;23.40;59.70;;;;;;4163282;28;20044;-55
2021/09/16 07:32:10;;;;;;;13.52;8.10;;;23.40;59.40;;;;;;4162702;28;20038;-54
2021/09/16 07:34:33;;;;;;;14.35;9.07;;;23.40;60.30;;;;;;4164232;28;20463;-56
2021/09/16 07:36:55;;;;;;;13.30;8.55;;;23.40;59.50;;;;;;4162387;28;20038;-52
2021/09/16 07:39:19;;;;;;;9.90;8.77;;;23.40;59.40;;;;;;4164245;28;20046;-55
2021/09/16 07:41:42;;;;;;;14.52;9.23;;;23.40;60.00;;;;;;4163416;28;20042;-55
2021/09/16 07:44:05;;;;;;;19.17;8.77;;;23.40;59.50;;;;;;4164201;28;20045;-56
2021/09/16 07:46:28;;;;;;;15.35;8.15;;;23.40;59.50;;;;;;4162343;28;20046;-56
2021/09/16 07:48:50;;;;;;;14.50;8.68;;;23.40;59.70;;;;;;4163577;28;20046;-51
2021/09/16 07:51:12;;;;;;;9.93;8.10;;;23.40;60.00;;;;;;4164327;28;20057;-48
2021/09/16 07:53:35;;;;;;;12.32;7.80;;;23.40;59.90;;;;;;4165890;28;20086;-48
2021/09/16 07:55:58;;;;;;;13.05;8.50;;;23.40;60.00;;;;;;4166056;28;20048;-47
2021/09/16 07:58:20;;;;;;;11.38;7.95;;;23.40;59.70;;;;;;4167081;28;20121;-47
2021/09/16 08:00:43;;;;;;;10.13;7.78;;;23.40;59.80;;;;;;4167196;28;20057;-51
2021/09/16 08:03:05;;;;;;;13.20;7.82;;;23.40;60.00;;;;;;4168603;28;20042;-50
2021/09/16 08:05:28;;;;;;;13.95;7.70;;;23.40;59.60;;;;;;4168044;28;20038;-47
2021/09/16 08:07:50;;;;;;;11.38;7.75;;;23.40;58.90;;;;;;4168697;28;20049;-47
2021/09/16 08:10:14;;;;;;;23.35;8.57;;;23.40;59.30;;;;;;4168122;28;20057;-46
2021/09/16 08:12:36;;;;;;;13.88;8.50;;;23.40;59.50;;;;;;4168451;28;20098;-48
2021/09/16 08:14:59;;;;;;;14.38;7.50;;;23.40;59.00;;;;;;4167957;28;20056;-49
2021/09/16 08:17:21;;;;;;;9.30;7.40;;;23.40;59.10;;;;;;4167811;28;20045;-50
2021/09/16 08:19:43;;;;;;;10.55;7.70;;;23.40;59.40;;;;;;4167819;28;20038;-54
2021/09/16 08:22:06;;;;;;;11.05;7.35;;;23.40;59.70;;;;;;4168446;28;20102;-51
2021/09/16 08:24:29;;;;;;;9.52;7.72;;;23.40;59.00;;;;;;4166018;28;20098;-51
2021/09/16 08:26:52;;;;;;;13.98;8.20;;;23.40;58.40;;;;;;4167806;28;20042;-51
2021/09/16 08:29:14;;;;;;;9.38;7.15;;;23.40;58.90;;;;;;4167679;28;20042;-48
2021/09/16 08:31:36;;;;;;;8.73;7.20;;;23.40;58.70;;;;;;4167689;28;20045;-47
2021/09/16 08:33:59;;;;;;;13.02;8.52;;;23.40;58.40;;;;;;4166976;28;20072;-50
2021/09/16 08:36:22;;;;;;;17.20;7.43;;;23.40;58.60;;;;;;4166474;28;20046;-49
2021/09/16 08:38:44;;;;;;;15.43;7.50;;;23.40;58.00;;;;;;4166323;28;20101;-47
2021/09/16 08:41:07;;;;;;;10.98;6.97;;;23.40;58.50;;;;;;4168131;28;20052;-47
2021/09/16 08:43:32;;;;;;;20.10;7.22;;;23.40;58.30;;;;;;4168682;28;20045;-46
2021/09/16 08:45:54;;;;;;;8.10;6.63;;;23.40;57.90;;;;;;4167961;28;20042;-52
2021/09/16 08:48:17;;;;;;;11.13;7.43;;;23.40;58.40;;;;;;4166337;28;20077;-48
2021/09/16 08:50:39;;;;;;;11.73;8.38;;;23.40;58.40;;;;;;4167252;28;20172;-48
2021/09/16 08:53:02;;;;;;;9.63;7.35;;;23.40;58.70;;;;;;4167389;28;20394;-49
2021/09/16 08:55:25;;;;;;;10.75;6.78;;;23.40;58.60;;;;;;4166511;28;20046;-49
2021/09/16 08:57:54;;;;;;;9.18;6.97;;;23.40;58.40;;;;;;4168513;28;20093;-47
2021/09/16 09:00:19;;;;;;;12.88;7.40;;;23.40;58.60;;;;;;4166627;28;20097;-47
2021/09/16 09:02:47;;;;;;;10.50;6.90;;;23.40;58.80;;;;;;4167198;28;20049;-46
2021/09/16 09:05:11;;;;;;;9.90;7.13;;;23.40;59.00;;;;;;4167080;28;20034;-49
2021/09/16 09:07:41;;;;;;;8.15;6.75;;;23.40;59.00;;;;;;4167086;28;20052;-49
2021/09/16 09:10:04;;;;;;;8.88;7.13;;;23.40;58.40;;;;;;4165885;28;20046;-47
2021/09/16 09:12:34;;;;;;;8.80;6.60;;;23.40;58.80;;;;;;4165832;28;20038;-47
2021/09/16 09:15:00;;;;;;;8.65;6.90;;;23.40;58.40;;;;;;4167019;28;20046;-46
2021/09/16 09:17:26;;;;;;;8.35;6.90;;;23.40;58.60;;;;;;4153750;28;20046;-46
2021/09/16 09:19:50;;;;;;;11.63;7.80;;;23.40;58.40;;;;;;4165628;28;20042;-47
2021/09/16 09:22:12;;;;;;;10.38;6.40;;;23.40;58.50;;;;;;4166903;28;20314;-46
2021/09/16 09:24:41;;;;;;;11.25;6.70;;;23.40;58.60;;;;;;4165629;28;20097;-48
2021/09/16 09:27:19;;;;;;;9.82;7.10;;;23.40;58.80;;;;;;4165702;28;20053;-48
2021/09/16 09:29:41;;;;;;;9.23;7.25;;;23.40;58.90;;;;;;4167304;28;20045;-46
2021/09/16 09:32:07;;;;;;;11.35;7.32;;;23.40;58.60;;;;;;4166786;28;20045;-47
2021/09/16 09:34:40;;;;;;;10.10;7.00;;;23.40;58.60;;;;;;4166823;28;20052;-47
2021/09/16 09:37:35;;;;;;;8.63;6.97;;;23.40;58.40;;;;;;4166614;28;20106;-48
2021/09/16 09:39:59;;;;;;;10.20;6.93;;;23.40;58.90;;;;;;4166633;28;20057;-46
2021/09/16 09:42:24;;;;;;;11.98;7.18;;;23.40;58.60;;;;;;4152764;28;20065;-49
2021/09/16 09:44:47;;;;;;;8.85;6.82;;;23.40;58.50;;;;;;4167190;28;20106;-47
2021/09/16 09:47:09;;;;;;;8.35;6.93;;;23.40;58.70;;;;;;4165187;28;20038;-47
2021/09/16 09:49:34;;;;;;;9.60;7.10;;;23.40;58.60;;;;;;4165452;28;20046;-48
2021/09/16 09:51:58;;;;;;;11.88;6.97;;;23.40;58.70;;;;;;4167495;28;20054;-52
2021/09/16 09:54:28;;;;;;;8.82;7.30;;;23.40;58.80;;;;;;4165910;28;20046;-48
2021/09/16 09:57:08;;;;;;;;;;;23.40;58.80;;;;;;4165523;28;20101;-49
2021/09/16 09:59:54;;;;;;;13.70;6.72;;;23.40;58.80;;;;;;4165476;28;19928;-52
2021/09/16 10:02:17;;;;;;;8.00;6.60;;;23.40;58.90;;;;;;4166774;28;20034;-46
2021/09/16 10:04:42;;;;;;;7.72;6.40;;;23.40;58.70;;;;;;4164986;28;20038;-49
2021/09/16 10:07:04;;;;;;;11.77;7.05;;;23.40;58.70;;;;;;4164809;28;20041;-50
2021/09/16 10:09:27;;;;;;;8.40;6.93;;;23.40;58.80;;;;;;4166153;28;20049;-51
2021/09/16 10:11:52;;;;;;;8.65;6.80;;;23.40;58.80;;;;;;4166108;28;20109;-48
2021/09/16 10:14:15;;;;;;;6.93;6.22;;;23.40;58.40;;;;;;4166075;28;20107;-50
2021/09/16 10:16:38;;;;;;;10.68;6.95;;;23.40;58.00;;;;;;4164641;28;20102;-51
2021/09/16 10:19:01;;;;;;;7.97;6.55;;;23.40;58.40;;;;;;4164936;28;20116;-47
2021/09/16 10:21:23;;;;;;;10.48;7.10;;;23.40;58.60;;;;;;4164928;28;20042;-50
2021/09/16 10:23:47;;;;;;;7.38;6.55;;;23.40;58.40;;;;;;4166347;28;20044;-49
2021/09/16 10:26:34;;;;;;;9.63;7.07;;;23.40;58.00;;;;;;4165027;28;20052;-48
2021/09/16 10:28:57;;;;;;;8.88;6.07;;;23.40;58.60;;;;;;4166509;28;20050;-48
2021/09/16 10:31:21;;;;;;;13.75;7.30;;;23.40;58.40;;;;;;4165904;28;20105;-47
2021/09/16 10:33:43;;;;;;;9.18;7.68;;;23.40;58.60;;;;;;4150692;28;20065;-47
2021/09/16 10:36:08;;;;;;;8.52;6.53;;;23.40;58.60;;;;;;4165890;28;20038;-47
2021/09/16 10:38:44;;;;;;;7.53;6.30;;;23.40;58.50;;;;;;4167130;28;20487;-50
2021/09/16 10:41:23;;;;;;;9.23;7.22;;;23.40;58.20;;;;;;4164871;28;20070;-48
2021/09/16 10:43:59;;;;;;;8.60;6.90;;;23.40;58.20;;;;;;4165851;28;20045;-46
2021/09/16 10:46:47;;;;;;;7.65;5.95;;;23.40;58.10;;;;;;4165717;28;20101;-47
2021/09/16 10:49:24;;;;;;;9.68;6.25;;;23.40;58.10;;;;;;4165252;28;20046;-49
2021/09/16 10:52:02;;;;;;;7.75;6.97;;;23.40;58.00;;;;;;4165904;28;20042;-47
2021/09/16 10:54:28;;;;;;;14.05;7.03;;;23.40;58.00;;;;;;4165200;28;20077;-50
2021/09/16 10:57:04;;;;;;;16.73;6.78;;;23.40;57.90;;;;;;4152206;28;20057;-48
2021/09/16 10:59:48;;;;;;;10.73;6.78;;;23.40;57.80;;;;;;4166273;28;20057;-50
2021/09/16 11:02:09;;;;;;;13.80;7.72;;;23.40;57.70;;;;;;4166345;28;20098;-48
2021/09/16 11:04:56;;;;;;;13.38;8.07;;;23.40;57.50;;;;;;4151839;28;20069;-49
2021/09/16 11:07:38;;;;;;;11.40;6.38;;;23.40;57.80;;;;;;4166284;28;20109;-46
2021/09/16 11:10:20;;;;;;;7.80;4.90;;;23.40;57.40;;;;;;4163893;28;20061;-56
2021/09/16 11:12:46;;;;;;;8.10;4.22;;;23.40;57.50;;;;;;4166305;28;20069;-47
2021/09/16 11:15:09;;;;;;;;;;;23.40;57.60;;;;;;4166568;28;20056;-47
2021/09/16 11:17:30;;;;;;;8.30;3.78;;;23.30;57.80;;;;;;4166175;28;19928;-48
2021/09/16 11:19:52;;;;;;;9.50;3.65;;;23.30;57.80;;;;;;4166099;28;20053;-48
2021/09/16 11:22:13;;;;;;;8.38;4.18;;;23.30;57.80;;;;;;4166221;28;20088;-47
2021/09/16 11:24:38;;;;;;;7.15;3.58;;;23.30;57.90;;;;;;4165972;28;20061;-51
2021/09/16 11:26:58;;;;;;;6.32;3.25;;;23.40;57.90;;;;;;4166021;28;20076;-48
2021/09/16 11:29:19;;;;;;;8.25;3.38;;;23.40;57.80;;;;;;4166761;28;20073;-52
2021/09/16 11:31:40;;;;;;;6.45;3.45;;;23.40;57.80;;;;;;4168948;28;20106;-52
2021/09/16 11:34:13;;;;;;;12.00;3.90;;;23.40;57.90;;;;;;3810540;28;10000299;-53
2021/09/16 11:36:33;;;;;;;4.00;2.90;;;23.40;58.00;;;;;;4150368;28;20081;-57
2021/09/16 11:39:16;;;;;;;5.75;2.97;;;23.40;58.00;;;;;;4150563;28;20826;-55
2021/09/16 11:41:38;;;;;;;5.60;2.65;;;23.50;57.90;;;;;;4149451;28;20081;-57
2021/09/16 11:44:08;;;;;;;3.55;2.90;;;23.50;57.90;;;;;;4150507;28;20042;-55
2021/09/16 11:46:30;;;;;;;6.25;2.80;;;23.50;57.90;;;;;;4151922;28;20057;-53
2021/09/16 11:49:01;;;;;;;9.82;3.53;;;23.50;57.70;;;;;;4152135;28;20082;-53
2021/09/16 11:51:24;;;;;;;13.52;5.88;;;23.50;57.40;;;;;;4152662;28;20102;-57
2021/09/16 11:53:46;;;;;;;11.65;4.60;;;23.50;57.40;;;;;;4165895;28;20042;-58
2021/09/16 11:56:09;;;;;;;11.18;4.60;;;23.60;57.30;;;;;;4167081;28;20048;-57
2021/09/16 11:58:36;;;;;;;8.00;4.82;;;23.60;57.10;;;;;;4167368;28;20074;-47
2021/09/16 12:01:01;;;;;;;8.00;5.13;;;23.60;57.10;;;;;;4169374;28;20042;-57
2021/09/16 12:03:28;;;;;;;13.68;6.85;;;23.60;56.90;;;;;;4167750;28;20054;-46
2021/09/16 12:05:57;;;;;;;8.85;7.40;;;23.60;56.80;;;;;;4167638;28;20038;-55
2021/09/16 12:08:55;;;;;;;10.88;7.82;;;23.70;56.70;;;;;;4153064;28;20052;-56
2021/09/16 12:11:23;;;;;;;10.48;9.38;;;23.70;56.70;;;;;;4166875;28;20065;-53
2021/09/16 12:13:57;;;;;;;13.90;9.25;;;23.70;56.80;;;;;;4169063;28;20042;-49
2021/09/16 12:16:31;;;;;;;34.85;10.63;;;23.60;56.80;;;;;;4166515;28;20129;-49